Hughes Springs, Texas
Current Conditions -  °F | °C
As of 12:15 PM on Friday 19 Dec 2014 (Local Time) from KOSA Reporting Station
Overcast Overcast  
Wind Chill: 42°   Ceiling: 500
Heat Index: 46°   Visibility: 4mi
Dew Point: 45°   Wind: 7mph
Humidity: 97%   Direction: 350°N
Pressure: 30.19"   Gusts: NA
Location:  33°N, 94.63°W
Report Text: KOSA 191815Z AUTO 35006KT 4SM OVC005 08/07 A3019 RMK AO1 T00760071
Loading
Personal Weather Stations






























Interactive Weather Map New forecast layout! Learn more

10-Day Weather Forecast

Advertisements
Track Severe Weather on mobile